Latest Weather Observations for Norah Head

IDN60901

Issued at 11:55 pm EST Thursday 21 August 2014 (issued every 10 minutes, with the page automatically refreshed every 10 minutes)

About weather observations | Map of Sydney area stations | Latest observations for Sydney area | Other Formats
Station Details ID: 061366 Name: NORAH HEAD AWS Lat: -33.28 Lon: 151.58 Height: 18.8 m
Data from the previous 72 hours. | See also: Recent months at Norah Head
Date/Time
EST
Tmp

°C
App
Tmp
°C
Dew
Point
°C
Rel
Hum
%
Delta-T

°C
Wind Press
QNH
hPa
Press
MSL
hPa
Rain
since
9 am
mm
Dir
 
Spd
km/h
Gust
km/h
Spd
kts
Gust
kts
21/11:30pm 13.9 10.8 12.1 89 1.0 E 20 28 11 15 1029.4 - 13.8
21/11:00pm 14.3 10.4 13.2 93 0.6 E 26 35 14 19 1029.4 1029.4 13.8
21/10:30pm 13.8 9.6 12.5 92 0.7 E 26 35 14 19 1029.2 - 13.4
21/10:00pm 13.6 9.3 12.0 90 0.9 ENE 26 37 14 20 1029.3 1029.3 12.6
21/09:58pm 13.5 8.7 11.7 89 1.0 ENE 28 37 15 20 1029.3 - 12.6
21/09:55pm 14.0 7.1 11.7 86 1.2 E 39 48 21 26 1029.3 - 10.0
21/09:30pm 14.3 9.9 12.9 91 0.8 SE 28 33 15 18 1029.1 - 9.8
21/09:00pm 13.8 8.6 12.7 93 0.6 SSE 32 37 17 20 1028.9 1028.9 9.8
21/08:30pm 13.9 11.0 13.0 94 0.5 SSE 20 24 11 13 1029.0 - 9.4
21/08:00pm 13.7 10.8 12.8 94 0.5 SE 20 28 11 15 1028.8 1028.8 9.0
21/07:30pm 14.3 11.1 13.2 93 0.6 SSE 22 28 12 15 1028.6 - 8.2
21/07:00pm 13.9 11.2 12.8 93 0.6 S 19 26 10 14 1028.5 1028.5 8.2
21/06:30pm 13.9 9.0 12.6 92 0.7 S 30 35 16 19 1028.2 - 8.2
21/06:00pm 13.8 10.0 12.5 92 0.7 S 24 32 13 17 1028.0 1028.0 7.8
21/05:30pm 13.8 7.5 12.4 91 0.8 S 37 46 20 25 1027.7 - 5.8
21/05:22pm 14.0 9.6 12.9 93 0.6 S 28 43 15 23 1027.5 - 5.6
21/05:00pm 14.0 11.5 12.4 90 0.9 S 17 24 9 13 1027.5 1027.5 4.4
21/04:30pm 14.3 8.7 12.0 86 1.2 S 33 39 18 21 1027.0 - 4.2
21/04:00pm 14.7 9.1 12.0 84 1.5 S 33 41 18 22 1026.6 1026.6 4.2
21/03:30pm 14.1 8.8 12.5 90 0.9 S 32 39 17 21 1026.4 - 4.2
21/03:17pm 14.3 7.0 12.7 90 0.9 S 43 50 23 27 1026.2 - 4.2
21/03:06pm 14.7 10.4 13.1 90 0.9 SE 28 46 15 25 1026.1 - 4.2
21/03:00pm 14.5 11.6 13.0 91 0.8 SE 20 32 11 17 1026.2 1026.2 4.2
21/02:30pm 15.4 10.8 12.3 82 1.7 S 28 37 15 20 1026.2 - 0.0
21/02:00pm 16.3 9.9 12.1 76 2.3 S 37 44 20 24 1026.2 1026.2 0.0
21/01:30pm 15.8 10.0 11.4 75 2.4 S 33 39 18 21 1026.4 - 0.0
21/01:00pm 15.9 11.5 12.8 82 1.7 S 28 39 15 21 1026.8 1026.8 0.0
21/12:30pm 15.4 11.9 12.3 82 1.7 SSW 22 33 12 18 1027.2 - 0.0
21/12:00pm 15.9 12.2 12.6 81 1.8 S 24 33 13 18 1027.5 1027.5 0.0
21/11:30am 15.1 11.2 12.2 83 1.6 S 24 32 13 17 1027.9 - 0.0
21/11:00am 15.1 10.8 12.2 83 1.6 S 26 35 14 19 1028.2 1028.2 0.0
21/10:30am 15.0 12.3 11.8 81 1.7 SSW 17 26 9 14 1028.4 - 0.0
21/10:00am 14.2 12.6 11.5 84 1.4 SW 11 19 6 10 1028.5 1028.5 0.0
21/09:30am 13.0 11.8 11.7 92 0.7 WSW 9 15 5 8 1028.5 - 0.0
21/09:00am 11.8 10.0 10.7 93 0.6 W 11 20 6 11 1028.4 1028.4 2.6
21/08:30am 11.2 8.9 10.3 94 0.5 W 13 19 7 10 1028.3 - 2.6
21/08:00am 11.6 9.4 10.7 94 0.5 WSW 13 20 7 11 1028.1 1028.1 2.2
21/07:30am 11.0 9.0 10.1 94 0.5 W 11 15 6 8 1027.8 - 1.8
21/07:00am 11.0 8.6 9.9 93 0.6 WSW 13 20 7 11 1027.6 1027.6 1.6
21/06:30am 11.4 8.6 10.0 91 0.7 SW 15 24 8 13 1027.3 - 1.0
21/06:00am 11.5 8.3 10.1 91 0.7 WSW 17 22 9 12 1026.9 1026.9 1.0
21/05:30am 11.3 9.3 10.0 92 0.7 WSW 11 17 6 9 1026.6 - 1.0
21/05:00am 11.7 9.7 10.1 90 0.8 WSW 11 17 6 9 1026.5 1026.5 1.0
21/04:30am 11.8 9.0 10.0 89 0.9 SW 15 20 8 11 1026.4 - 1.0
21/04:00am 11.7 9.4 10.3 91 0.7 SW 13 19 7 10 1026.3 1026.3 1.0
21/03:30am 11.7 9.0 10.3 91 0.7 WSW 15 20 8 11 1026.1 - 1.0
21/03:00am 11.8 9.4 10.0 89 0.9 WSW 13 22 7 12 1026.0 1026.0 1.0
21/02:30am 11.8 9.0 10.0 89 0.9 WSW 15 22 8 12 1026.1 - 1.0
21/02:00am 12.1 9.7 10.2 88 1.0 WSW 13 20 7 11 1026.2 1026.2 1.0
21/01:30am 12.3 10.3 10.2 87 1.1 WSW 11 19 6 10 1026.3 - 1.0
21/01:00am 13.3 12.1 10.3 82 1.5 SW 7 13 4 7 1026.4 1026.4 1.0
21/12:30am 14.7 9.4 9.9 73 2.5 S 28 33 15 18 1026.2 - 1.0
21/12:00am 14.8 8.6 10.0 73 2.5 S 33 39 18 21 1026.2 1026.2 1.0
 
Date/Time
EST
Tmp

°C
App
Tmp
°C
Dew
Point
°C
Rel
Hum
%
Delta-T

°C
Wind Press
QNH
hPa
Press
MSL
hPa
Rain
since
9 am
mm
Dir
 
Spd
km/h
Gust
km/h
Spd
kts
Gust
kts
20/11:30pm 14.5 8.5 10.1 75 2.3 S 32 37 17 20 1026.0 - 1.0
20/11:00pm 13.9 11.1 11.2 84 1.4 S 17 22 9 12 1026.4 1026.4 1.0
20/10:58pm 14.1 11.7 11.3 83 1.5 S 15 20 8 11 1026.4 - 1.0
20/10:30pm 13.5 6.7 10.7 83 1.5 SSE 37 44 20 24 1026.1 - 1.0
20/10:00pm 14.7 9.2 10.7 77 2.1 S 30 33 16 18 1026.1 1026.1 0.4
20/09:30pm 14.7 8.2 10.5 76 2.2 S 35 46 19 25 1026.3 - 0.4
20/09:00pm 14.7 7.0 10.3 75 2.3 S 41 48 22 26 1026.1 1026.1 0.4
20/08:30pm 14.8 8.0 10.8 77 2.1 S 37 44 20 24 1026.1 - 0.4
20/08:00pm 15.0 7.9 11.0 77 2.1 S 39 46 21 25 1025.7 1025.7 0.4
20/07:30pm 14.8 7.6 10.4 75 2.3 S 39 46 21 25 1025.6 - 0.4
20/07:00pm 14.5 7.6 11.5 82 1.6 S 39 50 21 27 1025.3 1025.3 0.4
20/06:30pm 14.6 6.7 11.6 82 1.6 S 44 56 24 30 1025.0 - 0.4
20/06:00pm 14.9 8.2 10.9 77 2.1 S 37 48 20 26 1024.8 1024.8 0.4
20/05:30pm 14.5 8.4 9.9 74 2.4 S 32 43 17 23 1024.6 - 0.4
20/05:00pm 14.1 7.5 10.1 77 2.1 S 35 43 19 23 1024.4 1024.4 0.4
20/04:30pm 13.7 8.2 10.5 81 1.7 S 30 37 16 20 1024.3 - 0.4
20/04:00pm 13.8 7.4 10.6 81 1.7 S 35 46 19 25 1024.1 1024.1 0.4
20/03:30pm 13.6 5.6 11.1 85 1.3 S 44 56 24 30 1024.0 - 0.4
20/03:00pm 14.1 7.8 9.7 75 2.3 SSW 33 46 18 25 1023.9 1023.9 0.2
20/02:30pm 13.6 7.3 9.8 78 2.0 S 33 46 18 25 1023.8 - 0.2
20/02:06pm 14.2 8.7 10.4 78 2.0 S 30 48 16 26 1023.6 - 0.2
20/02:00pm 14.4 8.5 10.4 77 2.1 SSW 32 44 17 24 1023.6 1023.6 0.2
20/01:30pm 13.7 7.0 11.0 84 1.4 S 37 52 20 28 1023.6 - 0.2
20/01:12pm 13.8 7.8 10.0 78 2.0 S 32 52 17 28 1023.7 - 0.2
20/01:00pm 13.5 7.9 10.1 80 1.7 SSW 30 48 16 26 1023.8 1023.8 0.2
20/12:52pm 13.6 8.4 10.2 80 1.8 SSW 28 48 15 26 1023.8 - 0.2
20/12:30pm 13.7 10.2 10.1 79 1.9 SSW 19 28 10 15 1024.1 - 0.2
20/12:00pm 13.2 8.0 10.2 82 1.5 SSW 28 41 15 22 1024.5 1024.5 0.2
20/11:54am 13.8 8.2 10.0 78 2.0 S 30 41 16 22 1024.4 - 0.2
20/11:30am 13.9 12.1 10.9 82 1.6 SW 11 19 6 10 1024.7 - 0.2
20/11:00am 12.5 9.3 10.0 85 1.3 SW 17 28 9 15 1024.9 1024.9 0.2
20/10:30am 13.8 10.1 9.5 75 2.2 SSW 19 28 10 15 1024.8 - 0.0
20/10:00am 13.7 8.9 8.7 72 2.5 SSW 24 35 13 19 1024.5 1024.5 0.0
20/09:30am 13.6 9.0 9.6 77 2.0 SSW 24 35 13 19 1024.1 - 0.0
20/09:00am 13.5 8.4 9.2 75 2.2 SSW 26 37 14 20 1023.9 1023.9 15.2
20/08:30am 12.8 9.2 8.5 75 2.1 SW 17 26 9 14 1023.7 - 15.2
20/08:00am 12.4 8.7 7.9 74 2.2 SW 17 30 9 16 1023.6 1023.6 15.2
20/07:30am 12.5 9.2 8.2 75 2.1 SW 15 26 8 14 1023.3 - 15.2
20/07:00am 11.8 8.4 7.5 75 2.1 SW 15 24 8 13 1022.8 1022.8 15.2
20/06:30am 11.5 8.1 7.6 77 1.9 SW 15 26 8 14 1022.5 - 15.2
20/06:00am 11.2 7.7 7.3 77 1.9 SW 15 26 8 14 1022.2 1022.2 15.2
20/05:30am 11.3 7.9 7.6 78 1.8 SW 15 24 8 13 1021.7 - 15.2
20/05:00am 11.3 7.8 7.0 75 2.0 SW 15 26 8 14 1021.6 1021.6 15.2
20/04:30am 11.1 7.1 6.6 74 2.1 WSW 17 24 9 13 1021.3 - 15.2
20/04:00am 11.1 7.5 6.8 75 2.0 SW 15 24 8 13 1021.1 1021.1 15.2
20/03:30am 11.4 7.5 6.9 74 2.1 SW 17 26 9 14 1020.8 - 15.2
20/03:00am 11.8 7.3 6.9 72 2.3 SW 20 35 11 19 1020.6 1020.6 15.2
20/02:30am 12.0 8.6 7.5 74 2.2 SW 15 26 8 14 1020.5 - 15.2
20/02:00am 12.3 8.6 7.8 74 2.2 SW 17 28 9 15 1020.4 1020.4 15.2
20/01:30am 12.5 8.8 8.0 74 2.2 SW 17 28 9 15 1020.4 - 15.2
20/01:00am 12.6 9.1 8.7 77 1.9 SW 17 30 9 16 1020.4 1020.4 15.2
20/12:30am 12.7 8.8 8.8 77 2.0 SW 19 33 10 18 1020.3 - 15.2
20/12:00am 12.4 8.9 8.9 79 1.7 SW 17 32 9 17 1020.3 1020.3 15.2
 
Date/Time
EST
Tmp

°C
App
Tmp
°C
Dew
Point
°C
Rel
Hum
%
Delta-T

°C
Wind Press
QNH
hPa
Press
MSL
hPa
Rain
since
9 am
mm
Dir
 
Spd
km/h
Gust
km/h
Spd
kts
Gust
kts
19/11:30pm 12.4 9.1 9.4 82 1.5 SW 17 26 9 14 1020.3 - 15.2
19/11:00pm 12.5 9.2 9.5 82 1.5 SW 17 28 9 15 1020.4 1020.4 15.2
19/10:30pm 12.8 9.1 10.0 83 1.4 SW 20 30 11 16 1020.2 - 15.2
19/10:00pm 12.9 8.2 10.6 86 1.2 SW 26 54 14 29 1020.2 1020.2 15.2
19/09:43pm 14.3 9.5 11.6 84 1.4 SSW 28 50 15 27 1019.8 - 14.8
19/09:30pm 13.8 8.6 10.4 80 1.8 SSW 28 44 15 24 1019.9 - 14.8
19/09:00pm 13.4 9.4 10.4 82 1.6 SW 22 33 12 18 1019.6 1019.6 14.8
19/08:30pm 13.2 10.0 11.1 87 1.1 SW 19 30 10 16 1019.7 - 14.8
19/08:00pm 13.6 8.8 11.5 87 1.1 SSW 28 43 15 23 1019.6 1019.6 14.8
19/07:30pm 13.4 8.4 11.1 86 1.2 SW 28 43 15 23 1019.0 - 14.8
19/07:10pm 13.5 7.9 11.4 87 1.1 SSW 32 50 17 27 1018.8 - 14.8
19/07:00pm 13.4 8.2 11.5 88 1.0 SSW 30 44 16 24 1018.6 1018.6 14.8
19/06:30pm 13.6 8.1 12.0 90 0.9 SSW 32 50 17 27 1018.3 - 13.8
19/06:08pm 13.6 8.5 12.0 90 0.9 SSW 30 50 16 27 1018.0 - 13.8
19/06:00pm 13.5 8.1 12.1 91 0.8 SSW 32 44 17 24 1017.9 1017.9 13.6
19/05:44pm 13.7 9.1 12.3 91 0.8 SSW 28 44 15 24 1017.8 - 13.0
19/05:30pm 13.9 11.0 12.3 90 0.9 SSW 19 24 10 13 1017.5 - 11.4
19/05:00pm 14.3 9.8 11.5 83 1.5 SW 26 41 14 22 1016.8 1016.8 9.6
19/04:41pm 14.3 9.7 12.2 87 1.1 SSW 28 52 15 28 1016.5 - 9.6
19/04:30pm 14.5 10.2 12.2 86 1.2 SSW 26 37 14 20 1016.4 - 9.6
19/04:01pm 15.3 7.3 12.4 83 1.6 S 46 67 25 36 1015.8 - 9.6
19/04:00pm 15.4 6.6 12.2 81 1.7 S 50 67 27 36 1015.7 1015.6 9.6
19/03:58pm 15.2 5.1 11.8 80 1.8 S 56 67 30 36 1015.4 - 9.6
19/03:33pm 14.9 9.4 12.6 86 1.3 SSW 33 52 18 28 1015.5 - 9.6
19/03:30pm 14.7 9.2 12.4 86 1.3 SSW 33 46 18 25 1015.5 - 9.6
19/03:07pm 14.6 8.7 12.5 87 1.1 S 35 67 19 36 1015.4 - 9.2
19/03:00pm 14.4 8.4 12.1 86 1.2 SSW 35 50 19 27 1015.4 1015.3 8.6
19/02:30pm 15.1 7.7 12.4 84 1.5 SSW 43 63 23 34 1014.8 - 4.8
19/02:08pm 15.3 9.2 13.0 86 1.3 S 37 56 20 30 1014.7 - 4.8
19/02:00pm 14.7 7.6 12.2 85 1.4 SSW 41 56 22 30 1014.6 1014.5 4.8
19/01:30pm 14.3 6.9 12.3 88 1.1 S 43 70 23 38 1014.3 - 4.2
19/01:00pm 15.6 6.6 11.6 77 2.2 S 50 69 27 37 1013.7 1013.6 2.2
19/12:41pm 15.3 10.9 12.8 85 1.4 SSW 28 56 15 30 1014.1 - 2.2
19/12:30pm 14.7 9.2 12.4 86 1.3 SSW 33 46 18 25 1014.4 - 2.2
19/12:00pm 14.8 10.3 12.7 87 1.2 SSW 28 57 15 31 1014.4 1014.3 2.0
19/11:30am 14.5 9.0 12.4 87 1.1 SSW 33 54 18 29 1014.8 - 1.8
19/11:04am 15.9 7.8 11.9 77 2.2 S 46 65 25 35 1014.3 - 1.0
19/11:00am 16.1 8.0 12.1 77 2.2 S 46 61 25 33 1014.3 1014.2 1.0
19/10:30am 14.8 5.5 11.9 83 1.6 S 52 82 28 44 1014.3 - 1.0
19/10:00am 14.9 6.9 11.1 78 2.0 S 44 69 24 37 1014.1 1014.0 0.2
19/09:41am 15.8 8.9 12.7 82 1.7 S 41 63 22 34 1013.9 - 0.2
19/09:30am 16.1 8.6 12.1 77 2.2 S 43 56 23 30 1014.0 - 0.0
19/09:00am 16.2 6.7 11.2 72 2.7 S 52 65 28 35 1013.5 1013.4 31.0
19/08:40am 16.3 7.6 12.5 78 2.1 S 50 70 27 38 1013.3 - 31.0
19/08:30am 15.9 5.9 11.9 77 2.2 S 56 70 30 38 1013.2 - 31.0
19/08:16am 15.3 6.5 12.2 82 1.7 S 50 70 27 38 1012.9 - 31.0
19/08:00am 14.9 6.3 12.8 87 1.2 S 50 67 27 36 1013.1 1013.0 31.0
19/07:30am 15.5 5.9 12.1 80 1.9 S 54 69 29 37 1012.4 - 31.0
19/07:00am 14.8 4.5 11.8 82 1.6 S 57 72 31 39 1011.8 1011.7 31.0
19/06:33am 14.8 5.5 13.2 90 0.9 S 54 74 29 40 1011.1 - 31.0
19/06:30am 14.7 5.8 13.1 90 0.9 S 52 67 28 36 1011.4 - 30.8
19/06:01am 14.8 7.7 13.3 91 0.8 S 43 63 23 34 1010.9 - 30.4
19/06:00am 14.9 7.8 13.4 91 0.8 S 43 56 23 30 1011.0 1010.9 30.4
19/05:30am 14.7 5.6 13.7 94 0.6 S 54 76 29 41 1010.3 - 29.4
19/05:24am 14.1 5.5 13.0 93 0.6 S 50 69 27 37 1010.6 - 29.2
19/05:00am 14.2 5.5 13.6 96 0.3 S 52 67 28 36 1010.2 1010.1 28.8
19/04:52am 14.2 4.4 13.4 95 0.4 S 57 67 31 36 1010.1 - 28.2
19/04:48am 14.6 8.8 13.8 95 0.4 S 37 57 20 31 1010.2 - 26.6
19/04:30am 14.6 7.4 13.8 95 0.4 S 44 59 24 32 1009.8 - 26.0
19/04:03am 14.4 8.1 13.6 95 0.4 SSW 39 59 21 32 1009.9 - 25.4
19/04:00am 14.8 8.3 14.0 95 0.5 S 41 59 22 32 1009.7 1009.6 25.0
19/03:52am 14.9 10.8 13.9 94 0.6 SSW 28 54 15 29 1009.7 - 24.0
19/03:30am 15.2 8.9 13.6 90 0.9 S 39 54 21 29 1009.4 - 23.0
19/03:09am 15.2 9.4 13.9 92 0.7 S 37 56 20 30 1009.2 - 22.8
19/03:00am 14.9 6.8 13.3 90 0.9 S 48 56 26 30 1009.2 1009.2 22.8
19/02:30am 14.6 10.7 14.3 98 0.2 S 28 43 15 23 1009.0 - 22.8
19/02:00am 12.3 10.4 11.8 97 0.3 W 13 22 7 12 1009.2 1009.2 22.4
19/01:30am 12.7 11.3 12.2 97 0.3 WSW 11 22 6 12 1009.2 - 13.4
19/01:00am 12.5 9.9 11.9 96 0.3 W 17 26 9 14 1009.2 1009.2 12.0
19/12:30am 12.5 9.8 11.7 95 0.4 W 17 24 9 13 1009.1 - 10.4
19/12:00am 12.6 10.3 11.7 94 0.5 W 15 24 8 13 1009.0 1009.0 10.2

Latest Capital City Observations: Canberra | Sydney | Melbourne | Brisbane | Adelaide | Perth | Hobart | Darwin

Other Formats:

Comma delimited format used in spreadsheet applications
http://www.bom.gov.au/fwo/IDN60901/IDN60901.95770.axf

JavaScript Object Notation format (JSON) in row-major order
http://www.bom.gov.au/fwo/IDN60901/IDN60901.95770.json